Time;durP1;ratioP1;P1;durP2;ratioP2;P2;SDS_P1;SDS_P2;PMS_P1;PMS_P2;Temp;Humidity;BMP_temperature;BMP_pressure;BME280_temperature;BME280_humidity;BME280_pressure;Samples;Min_cycle;Max_cycle;Signal;HPM_P1;HPM_P2
2022/10/03 00:02:56;;;;;;;9.77;5.35;;;9.40;99.90;;;;;;5033380;28;20021;-71
2022/10/03 00:05:42;;;;;;;10.32;6.10;;;9.40;99.90;;;;;;5033823;28;20068;-71
2022/10/03 00:08:45;;;;;;;9.20;5.38;;;9.40;99.90;;;;;;5016024;28;20060;-71
2022/10/03 00:11:39;;;;;;;9.48;5.85;;;9.30;99.90;;;;;;5032619;28;20060;-71
2022/10/03 00:14:24;;;;;;;9.65;5.80;;;9.30;99.90;;;;;;5034376;28;20026;-71
2022/10/03 00:17:21;;;;;;;13.27;5.55;;;9.30;99.90;;;;;;5015663;28;20022;-71
2022/10/03 00:20:07;;;;;;;9.13;6.00;;;9.30;99.90;;;;;;5002403;28;20044;-71
2022/10/03 00:22:54;;;;;;;9.77;5.28;;;9.30;99.90;;;;;;5015505;28;20064;-71
2022/10/03 00:25:26;;;;;;;11.73;5.55;;;9.20;99.90;;;;;;5032961;28;20017;-71
2022/10/03 00:28:16;;;;;;;8.82;5.70;;;9.10;99.90;;;;;;5016360;28;20057;-71
2022/10/03 00:30:53;;;;;;;9.35;4.82;;;9.10;99.90;;;;;;5033187;28;20025;-71
2022/10/03 00:33:49;;;;;;;10.05;5.40;;;9.20;99.90;;;;;;5033428;28;20041;-70
2022/10/03 00:36:43;;;;;;;12.15;5.47;;;9.20;99.90;;;;;;5015402;28;20037;-71
2022/10/03 00:39:21;;;;;;;6.75;4.30;;;9.30;99.90;;;;;;5033059;28;20040;-71
2022/10/03 00:41:47;;;;;;;7.22;5.32;;;9.20;99.90;;;;;;5015327;28;20022;-71
2022/10/03 00:44:42;;;;;;;5.65;4.50;;;9.10;99.90;;;;;;5033027;28;20041;-71
2022/10/03 00:47:32;;;;;;;6.78;4.10;;;9.10;99.90;;;;;;5015541;28;20021;-71
2022/10/03 00:50:05;;;;;;;5.72;4.07;;;8.90;99.90;;;;;;5033229;28;20026;-71
2022/10/03 00:52:46;;;;;;;8.05;4.30;;;8.90;99.90;;;;;;5015802;28;20025;-71
2022/10/03 00:55:20;;;;;;;7.70;4.05;;;9.00;99.90;;;;;;5033211;28;20026;-71
2022/10/03 00:57:57;;;;;;;5.90;4.18;;;9.00;99.90;;;;;;5015150;28;20021;-71
2022/10/03 01:00:30;;;;;;;5.53;4.07;;;9.00;99.90;;;;;;5015132;28;20033;-71
2022/10/03 01:03:31;;;;;;;5.93;3.88;;;8.90;99.90;;;;;;5032909;28;20067;-70
2022/10/03 01:06:23;;;;;;;6.70;4.13;;;8.90;99.90;;;;;;5015066;28;20079;-71
2022/10/03 01:09:09;;;;;;;4.15;3.38;;;9.00;99.90;;;;;;5032844;28;20025;-71
2022/10/03 01:12:07;;;;;;;6.63;3.72;;;9.00;99.90;;;;;;5032363;28;20042;-71
2022/10/03 01:14:51;;;;;;;7.03;4.07;;;9.00;99.90;;;;;;5033336;28;20064;-71
2022/10/03 01:17:30;;;;;;;6.63;4.45;;;8.90;99.90;;;;;;5033063;28;20041;-71
2022/10/03 01:20:34;;;;;;;7.45;4.43;;;8.90;99.90;;;;;;5015824;28;20064;-71
2022/10/03 01:23:41;;;;;;;5.70;4.25;;;8.80;99.90;;;;;;4955175;28;20038;-71
2022/10/03 01:26:33;;;;;;;6.18;4.03;;;8.80;99.90;;;;;;4946880;23;20038;-74
2022/10/03 01:32:08;;;;;;;7.75;3.80;;;8.60;99.90;;;;;;5057325;28;20040;-75
2022/10/03 01:34:45;;;;;;;4.38;3.70;;;8.60;99.90;;;;;;5040468;28;20049;-74
2022/10/03 01:37:22;;;;;;;5.15;3.80;;;8.60;99.90;;;;;;5039338;28;20021;-74
2022/10/03 01:39:58;;;;;;;5.22;3.63;;;8.60;99.90;;;;;;5039133;28;20029;-74
2022/10/03 01:42:51;;;;;;;6.03;3.33;;;8.60;99.90;;;;;;5039221;28;20029;-74
2022/10/03 01:45:40;;;;;;;7.50;3.67;;;8.70;99.90;;;;;;5057090;28;20025;-74
2022/10/03 01:48:16;;;;;;;4.30;3.67;;;8.60;99.90;;;;;;5039683;28;20017;-74
2022/10/03 01:51:06;;;;;;;4.18;3.15;;;8.60;99.90;;;;;;5057429;28;20025;-74
2022/10/03 01:53:52;;;;;;;6.55;3.10;;;8.70;99.90;;;;;;5040160;28;20059;-74
2022/10/03 01:56:27;;;;;;;5.20;3.47;;;8.60;99.90;;;;;;5039590;28;20076;-74
2022/10/03 01:59:21;;;;;;;8.65;4.07;;;8.60;99.90;;;;;;5038838;28;20021;-74
2022/10/03 02:01:58;;;;;;;5.32;3.90;;;8.60;99.90;;;;;;5039699;28;20025;-75
2022/10/03 02:04:32;;;;;;;8.70;4.35;;;8.50;99.90;;;;;;5039731;28;20025;-74
2022/10/03 02:07:16;;;;;;;8.13;4.15;;;8.40;99.90;;;;;;5038593;28;20104;-74
2022/10/03 02:10:10;;;;;;;8.65;4.50;;;8.50;99.90;;;;;;5038774;28;20033;-74
2022/10/03 02:12:44;;;;;;;6.40;4.05;;;8.40;99.90;;;;;;5038544;28;20027;-74
2022/10/03 02:15:33;;;;;;;6.63;4.32;;;8.40;99.90;;;;;;5056549;28;20095;-74
2022/10/03 02:18:12;;;;;;;7.82;4.50;;;8.40;99.90;;;;;;5038537;28;20016;-74
2022/10/03 02:20:50;;;;;;;10.35;5.22;;;8.50;99.90;;;;;;5038818;28;20036;-74
2022/10/03 02:23:24;;;;;;;6.90;3.90;;;8.40;99.90;;;;;;5038719;28;20021;-74
2022/10/03 02:25:56;;;;;;;8.55;4.43;;;8.40;99.90;;;;;;5056408;28;20539;-74
2022/10/03 02:28:57;;;;;;;11.57;5.18;;;8.30;99.90;;;;;;5039263;28;20025;-74
2022/10/03 02:32:06;;;;;;;19.45;5.50;;;8.20;99.90;;;;;;5056284;28;20029;-74
2022/10/03 02:34:55;;;;;;;17.20;5.70;;;8.10;99.90;;;;;;5036050;28;20040;-74
2022/10/03 02:37:45;;;;;;;25.60;6.90;;;8.10;99.90;;;;;;5018584;28;20036;-74
2022/10/03 02:40:27;;;;;;;21.17;6.05;;;8.10;99.90;;;;;;5056077;28;20025;-74
2022/10/03 02:43:11;;;;;;;;;;;8.10;99.90;;;;;;5039256;28;20016;-74
2022/10/03 02:46:21;;;;;;;22.23;7.32;;;8.00;99.90;;;;;;5037956;28;19904;-74
2022/10/03 02:49:09;;;;;;;27.55;8.02;;;8.00;99.90;;;;;;5022765;28;20033;-74
2022/10/03 02:51:57;;;;;;;28.05;6.78;;;8.20;99.90;;;;;;5037940;28;20139;-74
2022/10/03 02:54:33;;;;;;;49.67;8.57;;;8.20;99.90;;;;;;5037909;28;20074;-74
2022/10/03 02:57:38;;;;;;;53.80;8.23;;;8.20;99.90;;;;;;5038178;28;20092;-74
2022/10/03 03:00:26;;;;;;;66.97;8.55;;;8.30;99.90;;;;;;5033202;28;20043;-74
2022/10/03 03:03:17;;;;;;;66.97;10.70;;;8.30;99.90;;;;;;5056068;28;20037;-74
2022/10/03 03:05:51;;;;;;;62.60;9.93;;;8.30;99.90;;;;;;5055888;28;20465;-74
2022/10/03 03:08:50;;;;;;;82.05;12.23;;;8.30;99.90;;;;;;5056141;28;20072;-74
2022/10/03 03:11:47;;;;;;;71.82;9.60;;;8.30;99.90;;;;;;5054696;28;20026;-74
2022/10/03 03:14:25;;;;;;;40.42;8.18;;;8.40;99.90;;;;;;5039234;28;20047;-74
2022/10/03 03:17:05;;;;;;;60.33;9.02;;;8.40;99.90;;;;;;5037359;28;20025;-74
2022/10/03 03:19:58;;;;;;;81.70;8.50;;;8.40;99.90;;;;;;5037856;28;20025;-74
2022/10/03 03:22:54;;;;;;;44.38;7.47;;;8.50;99.90;;;;;;5055587;28;20419;-74
2022/10/03 03:25:38;;;;;;;21.67;5.95;;;8.50;99.90;;;;;;5048465;28;20029;-74
2022/10/03 03:28:45;;;;;;;13.45;5.47;;;8.40;99.90;;;;;;5037441;28;20083;-74
2022/10/03 03:31:20;;;;;;;8.18;4.60;;;8.50;99.90;;;;;;5036692;28;20143;-74
2022/10/03 03:34:21;;;;;;;9.60;4.78;;;8.60;99.90;;;;;;5055390;28;20029;-74
2022/10/03 03:37:23;;;;;;;8.93;4.07;;;8.70;99.90;;;;;;5038022;28;20021;-74
2022/10/03 03:40:13;;;;;;;9.48;5.35;;;8.70;99.90;;;;;;5037280;28;20031;-74
2022/10/03 03:42:49;;;;;;;7.18;4.28;;;8.80;99.90;;;;;;5037309;28;20021;-74
2022/10/03 03:45:53;;;;;;;8.40;4.70;;;8.80;99.90;;;;;;5037507;28;20074;-74
2022/10/03 03:48:52;;;;;;;7.60;4.80;;;8.70;99.90;;;;;;5037302;28;20032;-74
2022/10/03 03:52:00;;;;;;;6.03;4.07;;;8.70;99.90;;;;;;5038087;28;20120;-74
2022/10/03 03:54:43;;;;;;;10.43;5.10;;;8.80;99.90;;;;;;5029009;28;20040;-74
2022/10/03 03:57:33;;;;;;;7.10;4.10;;;8.80;99.90;;;;;;5054566;28;20028;-74
2022/10/03 04:00:13;;;;;;;5.78;4.25;;;8.90;99.90;;;;;;5036866;28;20039;-74
2022/10/03 04:03:09;;;;;;;6.68;4.55;;;8.90;99.90;;;;;;5037811;28;20025;-74
2022/10/03 04:06:02;;;;;;;7.55;4.97;;;9.00;99.90;;;;;;5037264;28;20024;-74
2022/10/03 04:09:02;;;;;;;8.32;4.85;;;9.10;99.90;;;;;;4977291;28;20560;-74
2022/10/03 04:11:48;;;;;;;10.35;4.35;;;9.20;99.90;;;;;;4994887;28;20529;-74
2022/10/03 04:15:08;;;;;;;7.93;4.68;;;9.50;99.90;;;;;;4994579;28;20154;-74
2022/10/03 04:21:08;;;;;;;8.40;4.80;;;10.00;99.90;;;;;;4975317;28;20042;-74
2022/10/03 04:24:15;;;;;;;8.60;5.50;;;9.80;99.90;;;;;;4974739;28;20023;-74
2022/10/03 04:26:47;;;;;;;7.95;4.57;;;9.60;99.90;;;;;;4974250;28;20039;-74
2022/10/03 04:29:28;;;;;;;8.23;4.55;;;9.40;99.90;;;;;;4974504;28;20035;-74
2022/10/03 04:32:15;;;;;;;7.25;4.53;;;9.10;99.90;;;;;;4974309;28;20027;-74
2022/10/03 04:35:03;;;;;;;8.50;4.03;;;9.00;99.90;;;;;;4958207;28;20082;-74
2022/10/03 04:37:43;;;;;;;8.73;4.80;;;8.90;99.90;;;;;;4973606;28;20114;-74
2022/10/03 04:40:20;;;;;;;11.90;4.65;;;8.80;99.90;;;;;;4973680;28;20035;-74
2022/10/03 04:42:57;;;;;;;11.95;5.15;;;8.80;99.90;;;;;;4974364;28;20023;-74
2022/10/03 04:45:49;;;;;;;9.32;5.20;;;8.70;99.90;;;;;;4995571;28;20040;-74
2022/10/03 04:48:17;;;;;;;;;;;8.90;99.90;;;;;;4997205;28;20036;-74
2022/10/03 04:51:04;;;;;;;10.85;5.68;;;8.90;99.90;;;;;;5024552;28;19999;-74
2022/10/03 04:53:55;;;;;;;9.90;5.25;;;9.10;99.90;;;;;;5055124;28;20036;-74
2022/10/03 04:56:34;;;;;;;8.05;5.03;;;9.10;99.90;;;;;;5037818;28;20028;-74
2022/10/03 04:59:09;;;;;;;15.18;5.43;;;9.00;99.90;;;;;;5040990;28;20033;-74
2022/10/03 05:01:58;;;;;;;7.90;5.30;;;9.00;99.90;;;;;;5041536;28;20025;-74
2022/10/03 05:04:44;;;;;;;9.45;5.35;;;8.90;99.90;;;;;;5058485;28;20384;-74
2022/10/03 05:07:24;;;;;;;9.52;5.30;;;8.90;99.90;;;;;;5040288;28;20036;-74
2022/10/03 05:09:57;;;;;;;8.20;4.88;;;8.80;99.90;;;;;;5040347;28;20433;-74
2022/10/03 05:12:40;;;;;;;11.60;5.05;;;8.80;99.90;;;;;;5057905;28;20021;-75
2022/10/03 05:15:40;;;;;;;9.45;4.82;;;8.70;99.90;;;;;;5040228;28;20029;-74
2022/10/03 05:18:18;;;;;;;8.65;4.40;;;8.70;99.90;;;;;;5039630;28;20032;-74
2022/10/03 05:20:54;;;;;;;8.30;4.90;;;8.60;99.90;;;;;;5057665;28;20029;-74
2022/10/03 05:24:01;;;;;;;6.90;4.43;;;8.60;99.90;;;;;;5057506;28;20071;-74
2022/10/03 05:26:47;;;;;;;9.05;4.90;;;8.70;99.90;;;;;;5057386;28;20025;-74
2022/10/03 05:29:35;;;;;;;7.50;5.15;;;8.70;99.90;;;;;;5040032;28;20024;-74
2022/10/03 05:32:27;;;;;;;7.82;4.65;;;8.70;99.90;;;;;;5057691;28;20032;-74
2022/10/03 05:35:12;;;;;;;12.10;5.70;;;8.70;99.90;;;;;;5057600;28;20017;-74
2022/10/03 05:38:06;;;;;;;7.03;4.53;;;8.80;99.90;;;;;;5040067;28;20029;-74
2022/10/03 05:40:34;;;;;;;6.38;4.75;;;8.90;99.90;;;;;;5057463;28;20032;-74
2022/10/03 05:43:35;;;;;;;8.25;4.90;;;8.90;99.90;;;;;;5057176;28;20021;-74
2022/10/03 05:46:28;;;;;;;6.95;3.83;;;9.00;99.90;;;;;;4979865;28;20062;-74
2022/10/03 05:49:22;;;;;;;9.70;4.55;;;9.10;99.90;;;;;;4980150;28;20027;-74
2022/10/03 05:51:48;;;;;;;6.03;4.00;;;9.10;99.90;;;;;;4979039;28;20034;-74
2022/10/03 05:54:32;;;;;;;9.48;4.40;;;9.10;99.90;;;;;;4995405;28;20053;-74
2022/10/03 05:57:26;;;;;;;9.25;4.45;;;9.00;99.90;;;;;;4996995;28;20121;-74
2022/10/03 06:00:05;;;;;;;5.78;4.22;;;9.00;99.90;;;;;;4979670;28;20026;-75
2022/10/03 06:03:07;;;;;;;6.28;4.35;;;8.90;99.90;;;;;;4980263;28;20034;-74
2022/10/03 06:06:09;;;;;;;6.25;4.38;;;8.80;99.90;;;;;;4978887;28;20026;-74
2022/10/03 06:08:50;;;;;;;7.78;4.15;;;8.70;99.90;;;;;;4978855;28;20030;-74
2022/10/03 06:11:34;;;;;;;8.48;4.45;;;8.70;99.90;;;;;;4979024;28;20030;-74
2022/10/03 06:14:39;;;;;;;8.40;4.32;;;8.70;99.90;;;;;;4995178;28;20058;-74
2022/10/03 06:17:28;;;;;;;5.85;4.07;;;8.70;99.90;;;;;;4988123;28;20205;-74
2022/10/03 06:20:31;;;;;;;10.90;4.03;;;8.70;99.90;;;;;;4995503;28;20026;-74
2022/10/03 06:23:30;;;;;;;9.45;4.72;;;8.70;99.90;;;;;;5057081;28;20066;-74
2022/10/03 06:26:05;;;;;;;10.18;4.97;;;8.70;99.90;;;;;;5056408;28;20017;-74
2022/10/03 06:28:54;;;;;;;9.00;4.78;;;8.70;99.90;;;;;;5038520;28;20112;-74
2022/10/03 06:31:56;;;;;;;7.10;4.93;;;8.70;99.90;;;;;;5038649;28;20036;-74
2022/10/03 06:34:53;;;;;;;7.63;5.13;;;8.80;99.90;;;;;;5038959;28;20021;-74
2022/10/03 06:37:46;;;;;;;9.77;4.60;;;8.80;99.90;;;;;;5056623;28;20484;-74
2022/10/03 06:40:52;;;;;;;11.88;5.22;;;8.80;99.90;;;;;;5056154;28;20077;-74
2022/10/03 06:43:40;;;;;;;10.98;4.88;;;8.80;99.90;;;;;;5025169;28;20052;-74
2022/10/03 06:46:33;;;;;;;7.28;4.28;;;8.90;99.90;;;;;;5039597;28;20039;-74
2022/10/03 06:49:33;;;;;;;11.57;5.00;;;8.90;99.90;;;;;;5038780;28;20021;-74
2022/10/03 06:52:30;;;;;;;6.50;4.38;;;8.90;99.90;;;;;;5035000;28;20033;-74
2022/10/03 06:55:28;;;;;;;8.82;4.93;;;9.00;99.90;;;;;;5039285;28;20078;-75
2022/10/03 06:58:15;;;;;;;9.43;4.55;;;9.10;99.90;;;;;;5056665;28;20021;-74
2022/10/03 07:01:12;;;;;;;10.05;5.32;;;9.20;99.90;;;;;;5038783;28;20491;-74
2022/10/03 07:03:55;;;;;;;7.97;4.90;;;9.30;99.90;;;;;;5056683;28;20028;-74
2022/10/03 07:06:32;;;;;;;9.07;4.80;;;9.40;99.90;;;;;;5056637;28;20017;-74
2022/10/03 07:09:12;;;;;;;10.15;5.60;;;9.50;99.90;;;;;;5055983;28;20055;-75
2022/10/03 07:12:06;;;;;;;6.22;4.15;;;9.60;99.90;;;;;;5056442;28;20024;-75
2022/10/03 07:15:22;;;;;;;12.15;6.38;;;9.70;99.90;;;;;;5039272;28;20541;-75
2022/10/03 07:18:09;;;;;;;15.68;6.38;;;9.90;99.90;;;;;;5039716;28;20046;-74
2022/10/03 07:20:44;;;;;;;10.30;5.95;;;10.00;99.90;;;;;;5039324;28;20031;-75
2022/10/03 07:23:43;;;;;;;9.10;5.63;;;10.20;99.90;;;;;;5039219;28;20353;-75
2022/10/03 07:26:29;;;;;;;13.63;5.20;;;10.40;99.90;;;;;;5039109;28;20031;-74
2022/10/03 07:29:26;;;;;;;12.95;5.53;;;10.60;99.90;;;;;;5036084;28;20054;-72
2022/10/03 07:32:21;;;;;;;16.45;6.65;;;10.70;99.90;;;;;;5036022;28;20392;-72
2022/10/03 07:35:19;;;;;;;14.88;5.65;;;10.80;99.90;;;;;;5053915;28;20025;-72
2022/10/03 07:41:30;;;;;;;12.98;6.28;;;11.10;99.90;;;;;;5053789;28;20109;-72
2022/10/03 07:44:11;;;;;;;15.60;6.15;;;11.20;99.90;;;;;;5054363;28;20505;-72
2022/10/03 07:46:40;;;;;;;14.60;6.97;;;11.30;99.90;;;;;;5054151;28;20030;-73
2022/10/03 07:49:29;;;;;;;15.80;7.22;;;11.30;99.90;;;;;;5035780;28;20500;-73
2022/10/03 07:52:28;;;;;;;15.98;6.22;;;11.40;99.90;;;;;;5053583;28;20071;-73
2022/10/03 07:54:53;;;;;;;15.80;7.38;;;11.50;99.90;;;;;;5053685;28;20088;-73
2022/10/03 07:57:38;;;;;;;20.55;7.50;;;11.60;99.90;;;;;;5053695;28;20068;-73
2022/10/03 08:00:10;;;;;;;16.73;7.82;;;11.70;99.90;;;;;;5033716;28;20116;-72
2022/10/03 08:03:01;;;;;;;14.40;6.68;;;11.70;99.90;;;;;;5015743;28;20017;-72
2022/10/03 08:05:29;;;;;;;16.73;7.07;;;11.80;99.90;;;;;;5033381;28;20021;-73
2022/10/03 08:08:17;;;;;;;13.75;7.07;;;11.90;99.90;;;;;;5033392;28;20101;-73
2022/10/03 08:10:59;;;;;;;19.45;7.40;;;12.00;99.90;;;;;;5016532;28;20029;-74
2022/10/03 08:13:43;;;;;;;17.33;7.45;;;12.00;99.90;;;;;;5033716;28;20024;-73
2022/10/03 08:16:32;;;;;;;24.17;7.97;;;12.10;99.90;;;;;;5033521;28;20021;-73
2022/10/03 08:19:32;;;;;;;17.42;7.18;;;12.10;99.90;;;;;;5033375;28;20075;-74
2022/10/03 08:22:30;;;;;;;18.65;7.38;;;12.20;99.90;;;;;;5033548;28;20025;-73
2022/10/03 08:25:28;;;;;;;18.17;6.97;;;12.30;99.90;;;;;;4992140;28;20042;-73
2022/10/03 08:28:18;;;;;;;16.13;7.15;;;12.40;99.90;;;;;;4992096;28;20050;-74
2022/10/03 08:31:17;;;;;;;13.38;6.07;;;12.60;99.90;;;;;;4975612;28;20031;-73
2022/10/03 08:34:32;;;;;;;17.10;7.10;;;12.60;99.90;;;;;;4979775;28;20121;-73
2022/10/03 08:37:13;;;;;;;16.13;7.05;;;12.70;99.90;;;;;;4979489;28;20050;-73
2022/10/03 08:40:03;;;;;;;17.67;6.82;;;12.60;99.90;;;;;;4995751;28;20034;-73
2022/10/03 08:42:29;;;;;;;14.82;6.55;;;12.60;99.90;;;;;;4995837;28;20050;-74
2022/10/03 08:45:29;;;;;;;16.13;7.20;;;12.60;99.90;;;;;;4995708;28;20073;-74
2022/10/03 08:48:31;;;;;;;19.02;7.45;;;12.70;99.90;;;;;;4979356;28;20516;-73
2022/10/03 08:50:57;;;;;;;15.70;6.10;;;12.90;99.90;;;;;;4995562;28;20042;-73
2022/10/03 08:53:53;;;;;;;14.65;6.20;;;13.10;99.90;;;;;;4979260;28;20034;-73
2022/10/03 09:00:31;;;;;;;5.00;2.87;;;13.50;99.90;;;;;;5001237;28;20037;-73
2022/10/03 09:03:34;;;;;;;9.85;4.40;;;13.90;99.90;;;;;;5037117;28;20266;-73
2022/10/03 09:06:45;;;;;;;13.15;7.90;;;14.10;99.90;;;;;;5036730;28;20021;-73
2022/10/03 09:09:57;;;;;;;8.75;3.72;;;14.20;99.90;;;;;;5024150;28;20068;-72
2022/10/03 09:12:47;;;;;;;22.75;14.07;;;14.40;99.90;;;;;;5057038;28;20082;-73
2022/10/03 09:15:38;;;;;;;9.20;4.13;;;14.40;99.90;;;;;;5039538;28;20029;-72
2022/10/03 09:18:09;;;;;;;9.60;5.85;;;14.30;99.90;;;;;;5039586;28;20029;-73
2022/10/03 09:20:49;;;;;;;9.40;3.65;;;14.50;99.90;;;;;;5039400;28;20025;-73
2022/10/03 09:23:37;;;;;;;7.07;2.55;;;14.50;99.90;;;;;;5039226;28;20418;-72
2022/10/03 09:26:40;;;;;;;6.32;2.88;;;14.40;99.90;;;;;;5038281;28;20029;-72
2022/10/03 09:29:24;;;;;;;10.20;2.70;;;14.40;99.90;;;;;;5056312;28;20036;-72
2022/10/03 09:32:22;;;;;;;7.63;2.75;;;14.30;99.90;;;;;;5056215;28;20021;-72
2022/10/03 09:38:54;;;;;;;7.78;2.80;;;14.30;99.90;;;;;;5056497;28;20033;-71
2022/10/03 09:41:57;;;;;;;12.63;3.67;;;14.40;99.90;;;;;;4978299;28;20130;-71
2022/10/03 09:44:49;;;;;;;8.00;2.63;;;14.60;99.90;;;;;;4978901;28;20026;-71
2022/10/03 09:48:06;;;;;;;8.38;2.63;;;14.70;99.90;;;;;;4978968;28;20121;-71
2022/10/03 09:50:51;;;;;;;7.78;2.55;;;14.70;99.90;;;;;;4994555;28;20092;-72
2022/10/03 09:53:29;;;;;;;8.48;2.72;;;14.80;99.90;;;;;;4978280;28;20055;-71
2022/10/03 09:56:25;;;;;;;5.15;2.38;;;14.70;99.90;;;;;;4978072;28;20064;-71
2022/10/03 09:59:14;;;;;;;6.90;2.58;;;14.90;99.90;;;;;;4978309;28;20030;-70
2022/10/03 10:02:01;;;;;;;5.72;2.40;;;15.10;99.90;;;;;;4994255;28;20088;-70
2022/10/03 10:04:48;;;;;;;6.45;2.28;;;15.20;99.90;;;;;;4978015;28;20367;-71
2022/10/03 10:07:28;;;;;;;8.32;2.50;;;15.40;99.90;;;;;;4977809;28;20066;-71
2022/10/03 10:10:16;;;;;;;6.57;2.55;;;15.40;99.90;;;;;;4994651;28;20022;-71
2022/10/03 10:13:02;;;;;;;6.57;2.38;;;15.30;99.90;;;;;;5022218;28;20033;-71
2022/10/03 10:15:39;;;;;;;10.82;2.50;;;15.10;99.90;;;;;;5055642;28;20025;-70
2022/10/03 10:18:23;;;;;;;11.73;2.30;;;14.80;99.90;;;;;;5037387;28;20021;-70
2022/10/03 10:21:15;;;;;;;7.57;2.03;;;14.80;99.90;;;;;;5037480;28;20396;-70
2022/10/03 10:24:12;;;;;;;10.30;2.50;;;14.70;99.90;;;;;;5055578;28;20032;-70
2022/10/03 10:27:19;;;;;;;6.78;2.60;;;14.60;99.90;;;;;;5037094;28;20029;-71
2022/10/03 10:33:44;;;;;;;4.88;1.90;;;14.90;99.90;;;;;;5055382;28;20040;-71
2022/10/03 10:36:37;;;;;;;3.00;1.73;;;15.30;99.90;;;;;;5038336;28;20032;-71
2022/10/03 10:39:40;;;;;;;5.20;2.03;;;15.30;99.90;;;;;;5037135;28;20025;-71
2022/10/03 10:42:36;;;;;;;10.65;2.10;;;15.20;99.90;;;;;;5037024;28;20033;-71
2022/10/03 10:45:14;;;;;;;12.13;4.13;;;15.10;99.90;;;;;;5049642;28;20112;-71
2022/10/03 10:48:20;;;;;;;4.93;2.10;;;15.10;99.90;;;;;;5037383;28;20032;-71
2022/10/03 10:51:10;;;;;;;5.47;2.00;;;15.10;99.90;;;;;;5056946;28;20056;-70
2022/10/03 10:53:57;;;;;;;11.57;2.35;;;15.00;99.90;;;;;;5037048;28;20036;-70
2022/10/03 10:56:41;;;;;;;6.05;2.30;;;15.00;99.90;;;;;;5036753;28;20032;-70
2022/10/03 10:59:31;;;;;;;8.50;2.75;;;14.90;99.90;;;;;;5037144;28;20029;-70
2022/10/03 11:02:34;;;;;;;5.43;2.42;;;15.10;99.90;;;;;;5037789;28;20403;-70
2022/10/03 11:05:24;;;;;;;4.88;2.13;;;15.20;99.90;;;;;;5037404;28;20025;-70
2022/10/03 11:08:32;;;;;;;6.03;2.28;;;15.20;99.90;;;;;;5054896;28;20017;-70
2022/10/03 11:11:35;;;;;;;4.28;2.10;;;15.30;99.90;;;;;;5036616;28;20131;-70
2022/10/03 11:14:32;;;;;;;3.65;2.13;;;15.70;99.90;;;;;;5036821;28;20021;-70
2022/10/03 11:17:19;;;;;;;7.78;1.90;;;15.90;99.90;;;;;;5037211;28;20032;-70
2022/10/03 11:20:09;;;;;;;8.70;2.25;;;15.80;99.90;;;;;;5036311;28;20020;-70
2022/10/03 11:22:56;;;;;;;5.47;1.50;;;15.80;99.90;;;;;;5037353;28;20104;-70
2022/10/03 11:25:40;;;;;;;5.32;1.73;;;16.40;99.90;;;;;;5054053;28;20024;-70
2022/10/03 11:28:25;;;;;;;6.03;2.28;;;16.70;99.90;;;;;;5053904;28;20039;-70
2022/10/03 11:30:57;;;;;;;4.82;1.65;;;16.70;99.90;;;;;;5036182;28;20021;-70
2022/10/03 11:33:31;;;;;;;4.18;1.58;;;16.90;99.90;;;;;;5054493;28;20021;-70
2022/10/03 11:36:27;;;;;;;3.97;1.33;;;17.30;99.90;;;;;;5036656;28;20083;-71
2022/10/03 11:39:43;;;;;;;5.82;1.92;;;17.30;99.90;;;;;;5053920;28;20021;-70
2022/10/03 11:46:10;;;;;;;6.90;1.87;;;17.90;99.90;;;;;;4992759;28;20034;-70
2022/10/03 11:48:45;;;;;;;4.00;1.70;;;18.00;99.90;;;;;;4976650;28;20031;-70
2022/10/03 11:51:35;;;;;;;8.23;2.05;;;17.70;99.90;;;;;;4992998;28;20045;-70
2022/10/03 11:54:26;;;;;;;5.72;2.25;;;17.40;99.90;;;;;;4976219;28;20035;-70
2022/10/03 11:57:25;;;;;;;12.32;3.47;;;17.70;99.90;;;;;;4976077;28;20026;-71
2022/10/03 11:59:59;;;;;;;8.07;3.05;;;17.70;99.90;;;;;;4976375;28;20030;-70
2022/10/03 12:02:41;;;;;;;11.68;3.55;;;17.40;99.90;;;;;;4992164;28;20022;-70
2022/10/03 12:05:40;;;;;;;6.93;2.45;;;17.30;99.90;;;;;;4975885;28;20023;-70
2022/10/03 12:11:28;;;;;;;8.68;2.70;;;17.70;99.90;;;;;;4992692;28;20053;-70
2022/10/03 12:14:08;;;;;;;5.75;2.00;;;17.70;99.90;;;;;;5034432;28;20044;-70
2022/10/03 12:16:49;;;;;;;8.07;2.28;;;17.60;99.90;;;;;;5053213;28;20025;-70
2022/10/03 12:19:34;;;;;;;10.10;2.72;;;17.50;99.90;;;;;;5035319;28;20396;-70
2022/10/03 12:22:21;;;;;;;7.22;3.30;;;17.60;99.90;;;;;;5036524;28;20057;-70
2022/10/03 12:24:48;;;;;;;6.78;2.13;;;17.70;99.90;;;;;;5036352;28;20104;-70
2022/10/03 12:27:19;;;;;;;5.20;2.10;;;17.70;99.90;;;;;;5035277;28;20029;-70
2022/10/03 12:30:00;;;;;;;9.43;2.42;;;18.00;99.90;;;;;;5035370;28;20021;-70
2022/10/03 12:32:30;;;;;;;8.05;3.50;;;18.60;99.90;;;;;;5053523;28;20037;-70
2022/10/03 12:35:20;;;;;;;8.38;3.38;;;19.00;99.90;;;;;;5053418;28;20021;-70
2022/10/03 12:38:04;;;;;;;8.93;2.72;;;19.50;99.90;;;;;;5035135;28;20116;-70
2022/10/03 12:40:42;;;;;;;7.35;2.55;;;19.40;99.90;;;;;;5035082;28;20025;-70
2022/10/03 12:43:37;;;;;;;7.00;3.20;;;19.40;99.90;;;;;;5035132;28;20017;-70
2022/10/03 12:46:14;;;;;;;6.32;2.90;;;19.00;99.90;;;;;;5052942;28;20028;-71
2022/10/03 12:48:44;;;;;;;5.95;2.25;;;18.70;99.90;;;;;;5053300;28;20028;-70
2022/10/03 12:51:51;;;;;;;5.40;2.30;;;18.60;99.90;;;;;;5035220;28;20017;-70
2022/10/03 12:54:28;;;;;;;5.65;2.00;;;18.40;99.90;;;;;;5053534;28;20025;-70
2022/10/03 12:57:25;;;;;;;6.13;2.35;;;18.30;99.90;;;;;;5034976;28;20119;-71
2022/10/03 13:00:21;;;;;;;4.80;2.42;;;18.10;99.90;;;;;;5035080;28;20025;-71
2022/10/03 13:03:01;;;;;;;7.45;2.47;;;18.00;99.90;;;;;;5052817;28;20021;-70
2022/10/03 13:06:05;;;;;;;5.07;2.13;;;17.80;99.90;;;;;;5053319;28;20017;-73
2022/10/03 13:09:08;;;;;;;5.93;2.28;;;17.60;99.90;;;;;;5037225;28;20052;-73
2022/10/03 13:12:16;;;;;;;6.18;2.20;;;17.50;99.90;;;;;;5034897;28;20025;-71
2022/10/03 13:15:19;;;;;;;6.10;2.40;;;17.40;99.90;;;;;;5035855;28;20029;-70
2022/10/03 13:17:48;;;;;;;6.43;2.20;;;17.40;99.90;;;;;;5054563;28;20051;-70
2022/10/03 13:20:36;;;;;;;5.68;2.20;;;17.60;99.90;;;;;;5038516;28;20032;-70
2022/10/03 13:23:23;;;;;;;4.75;2.47;;;18.00;99.90;;;;;;5038731;28;20017;-71
2022/10/03 13:26:03;;;;;;;6.13;2.65;;;18.50;99.90;;;;;;5038437;28;20112;-70
2022/10/03 13:28:36;;;;;;;5.10;1.90;;;18.70;99.90;;;;;;5042686;28;20072;-73
2022/10/03 13:31:16;;;;;;;7.40;2.40;;;19.20;99.90;;;;;;5057933;28;20029;-71
2022/10/03 13:33:50;;;;;;;4.78;1.77;;;19.50;99.90;;;;;;5058224;28;20028;-70
2022/10/03 13:36:25;;;;;;;5.65;1.90;;;19.60;99.90;;;;;;5056201;28;20025;-70
2022/10/03 13:39:11;;;;;;;5.95;2.65;;;19.60;99.90;;;;;;5056512;28;20029;-69
2022/10/03 13:42:27;;;;;;;4.72;1.77;;;19.70;99.90;;;;;;5040849;28;20032;-72
2022/10/03 13:44:55;;;;;;;4.82;1.88;;;19.70;99.90;;;;;;5029763;28;20037;-72
2022/10/03 13:47:34;;;;;;;3.22;1.70;;;19.60;99.90;;;;;;5056063;28;20021;-71
2022/10/03 13:50:21;;;;;;;7.40;1.92;;;19.40;99.90;;;;;;5055987;28;20029;-71
2022/10/03 13:53:02;;;;;;;6.53;2.10;;;19.40;99.90;;;;;;5037420;28;20041;-70
2022/10/03 13:55:34;;;;;;;;;;;19.60;99.90;;;;;;5056204;28;20017;-70
2022/10/03 13:58:34;;;;;;;12.55;3.67;;;19.70;99.90;;;;;;5039715;28;19904;-72
2022/10/03 14:01:03;;;;;;;6.03;2.60;;;19.40;99.90;;;;;;5039472;28;20087;-71
2022/10/03 14:03:49;;;;;;;6.15;2.53;;;19.00;99.90;;;;;;5055688;28;20079;-71
2022/10/03 14:06:35;;;;;;;6.30;2.92;;;18.80;99.90;;;;;;5038210;28;20025;-71
2022/10/03 14:09:30;;;;;;;9.90;2.50;;;18.60;99.90;;;;;;5037646;28;20078;-71
2022/10/03 14:12:23;;;;;;;4.97;1.52;;;18.50;99.90;;;;;;5037607;28;20033;-71
2022/10/03 14:15:05;;;;;;;4.38;1.50;;;18.50;99.90;;;;;;5056860;28;20054;-71
2022/10/03 14:17:42;;;;;;;8.73;2.33;;;18.10;99.90;;;;;;5041914;28;20029;-73
2022/10/03 14:20:28;;;;;;;5.03;2.20;;;18.00;99.90;;;;;;5042294;28;20033;-73
2022/10/03 14:23:05;;;;;;;3.92;2.00;;;17.90;99.90;;;;;;5042563;28;20051;-73
2022/10/03 14:25:39;;;;;;;5.20;2.00;;;18.00;99.90;;;;;;5057318;28;20021;-70
2022/10/03 14:28:34;;;;;;;6.72;2.47;;;18.00;99.90;;;;;;5037189;28;20068;-70
2022/10/03 14:31:13;;;;;;;7.50;2.45;;;18.00;99.90;;;;;;5055233;28;20025;-71
2022/10/03 14:34:01;;;;;;;8.30;3.00;;;17.80;99.90;;;;;;5038156;28;20025;-71
2022/10/03 14:36:42;;;;;;;6.63;1.80;;;17.60;99.90;;;;;;5057184;28;20072;-72
2022/10/03 14:39:31;;;;;;;9.05;2.70;;;17.70;99.90;;;;;;5040017;28;20047;-70
2022/10/03 14:41:59;;;;;;;5.10;2.03;;;17.60;99.90;;;;;;5037134;28;20085;-70
2022/10/03 14:44:39;;;;;;;11.18;2.90;;;17.50;99.90;;;;;;5039620;28;20017;-71
2022/10/03 14:47:10;;;;;;;3.80;2.17;;;17.70;99.90;;;;;;5037835;28;20032;-71
2022/10/03 14:49:39;;;;;;;6.82;2.67;;;17.60;99.90;;;;;;5058721;28;20076;-73
2022/10/03 14:52:12;;;;;;;6.38;2.05;;;17.40;99.90;;;;;;5055361;28;20032;-70
2022/10/03 14:54:41;;;;;;;12.25;2.65;;;17.50;99.90;;;;;;5036958;28;20147;-70
2022/10/03 14:57:35;;;;;;;4.35;2.15;;;17.50;99.90;;;;;;5037055;28;20028;-70
2022/10/03 15:00:03;;;;;;;4.95;2.17;;;17.60;99.90;;;;;;5034632;28;20072;-70
2022/10/03 15:02:37;;;;;;;4.22;1.70;;;17.70;99.90;;;;;;5040904;28;20048;-72
2022/10/03 15:05:13;;;;;;;5.35;1.95;;;17.70;99.90;;;;;;5041501;28;20044;-73